Time;durP1;ratioP1;P1;durP2;ratioP2;P2;SDS_P1;SDS_P2;PMS_P1;PMS_P2;Temp;Humidity;BMP_temperature;BMP_pressure;BME280_temperature;BME280_humidity;BME280_pressure;Samples;Min_cycle;Max_cycle;Signal;HPM_P1;HPM_P2
2022/08/08 00:00:57;;;;;;;2.90;0.90;;;;;;;;;;10401058;28;20268;-73
2022/08/08 00:06:12;;;;;;;2.70;0.90;;;;;;;;;;10404726;28;20224;-73
2022/08/08 00:11:20;;;;;;;3.60;0.70;;;;;;;;;;10395452;28;20225;-72
2022/08/08 00:16:25;;;;;;;1.03;0.67;;;;;;;;;;10408650;28;20291;-72
2022/08/08 00:21:31;;;;;;;1.33;0.70;;;;;;;;;;10398334;28;20234;-71
2022/08/08 00:26:37;;;;;;;0.97;0.50;;;;;;;;;;10400945;28;20229;-71
2022/08/08 00:31:45;;;;;;;1.10;0.57;;;;;;;;;;10407508;28;20669;-72
2022/08/08 00:36:51;;;;;;;1.00;0.57;;;;;;;;;;10399647;28;20613;-73
2022/08/08 00:41:58;;;;;;;1.07;0.70;;;;;;;;;;10360163;28;1132061;-73
2022/08/08 00:47:17;;;;;;;0.47;0.43;;;;;;;;;;10401519;28;20222;-72
2022/08/08 00:52:36;;;;;;;2.63;0.70;;;;;;;;;;10391631;28;20231;-73
2022/08/08 00:57:39;;;;;;;1.77;0.87;;;;;;;;;;10397349;28;20563;-74
2022/08/08 01:02:53;;;;;;;2.87;0.90;;;;;;;;;;10406945;28;20231;-73
2022/08/08 01:07:57;;;;;;;1.80;0.80;;;;;;;;;;10395641;28;20263;-73
2022/08/08 01:13:20;;;;;;;2.50;0.60;;;;;;;;;;10405046;28;20223;-73
2022/08/08 01:18:39;;;;;;;0.57;0.57;;;;;;;;;;10401913;28;20253;-73
2022/08/08 01:24:19;;;;;;;2.30;0.60;;;;;;;;;;10391581;28;20216;-72
2022/08/08 01:29:29;;;;;;;1.53;0.70;;;;;;;;;;10313617;28;20811;-73
2022/08/08 01:34:49;;;;;;;0.80;0.60;;;;;;;;;;10394843;28;20700;-72
2022/08/08 01:40:08;;;;;;;0.80;0.60;;;;;;;;;;10408205;28;20223;-73
2022/08/08 01:45:35;;;;;;;1.23;0.60;;;;;;;;;;10410500;28;20232;-72
2022/08/08 01:50:46;;;;;;;1.63;0.77;;;;;;;;;;10403956;28;20695;-71
2022/08/08 01:56:03;;;;;;;3.00;1.00;;;;;;;;;;10404561;28;20322;-72
2022/08/08 02:01:15;;;;;;;0.77;0.77;;;;;;;;;;10405993;28;20220;-71
2022/08/08 02:06:19;;;;;;;5.00;1.20;;;;;;;;;;10405378;28;20298;-73
2022/08/08 02:11:38;;;;;;;2.40;0.73;;;;;;;;;;10415327;28;20227;-72
2022/08/08 02:17:03;;;;;;;2.10;0.80;;;;;;;;;;10402406;28;20222;-73
2022/08/08 02:27:42;;;;;;;1.70;0.70;;;;;;;;;;10401091;28;20224;-72
2022/08/08 02:32:55;;;;;;;1.27;0.70;;;;;;;;;;10396722;28;20743;-72
2022/08/08 02:38:14;;;;;;;1.73;0.50;;;;;;;;;;10405921;28;20733;-71
2022/08/08 02:43:18;;;;;;;2.63;0.90;;;;;;;;;;10391300;28;20688;-71
2022/08/08 02:48:37;;;;;;;0.80;0.63;;;;;;;;;;10405468;28;20231;-71
2022/08/08 02:53:57;;;;;;;0.90;0.70;;;;;;;;;;10400174;28;20227;-71
2022/08/08 02:59:17;;;;;;;2.70;0.53;;;;;;;;;;10411876;28;20212;-73
2022/08/08 03:04:30;;;;;;;1.70;0.90;;;;;;;;;;10405646;28;20566;-72
2022/08/08 03:09:46;;;;;;;3.13;1.00;;;;;;;;;;10401074;28;20220;-70
2022/08/08 03:14:47;;;;;;;1.43;0.80;;;;;;;;;;10413467;28;20216;-72
2022/08/08 03:20:07;;;;;;;1.00;0.70;;;;;;;;;;10404659;28;20227;-73
2022/08/08 03:25:08;;;;;;;0.93;0.73;;;;;;;;;;10406049;28;20235;-70
2022/08/08 03:30:11;;;;;;;3.27;0.87;;;;;;;;;;10404206;28;20247;-73
2022/08/08 03:35:12;;;;;;;0.90;0.77;;;;;;;;;;10411780;28;20220;-73
2022/08/08 03:40:13;;;;;;;2.67;0.80;;;;;;;;;;10381946;28;20207;-72
2022/08/08 03:45:17;;;;;;;3.80;0.90;;;;;;;;;;10403819;28;20209;-72
2022/08/08 03:50:18;;;;;;;3.53;0.97;;;;;;;;;;10403982;28;20188;-72
2022/08/08 03:55:21;;;;;;;0.97;0.73;;;;;;;;;;10379040;28;20228;-72
2022/08/08 04:00:23;;;;;;;6.40;1.00;;;;;;;;;;10401976;28;20255;-72
2022/08/08 04:05:28;;;;;;;4.53;0.80;;;;;;;;;;10401707;28;20753;-73
2022/08/08 04:10:30;;;;;;;1.97;1.20;;;;;;;;;;10402573;28;20218;-71
2022/08/08 04:15:31;;;;;;;0.87;0.70;;;;;;;;;;10384240;28;20229;-72
2022/08/08 04:20:32;;;;;;;5.43;1.00;;;;;;;;;;10403684;28;20211;-72
2022/08/08 04:25:33;;;;;;;8.30;0.97;;;;;;;;;;10391054;28;20231;-73
2022/08/08 04:30:35;;;;;;;8.17;1.20;;;;;;;;;;10402513;28;20310;-73
2022/08/08 04:35:36;;;;;;;6.17;0.90;;;;;;;;;;10398817;28;20713;-71
2022/08/08 04:40:38;;;;;;;1.20;0.60;;;;;;;;;;10405961;28;20216;-72
2022/08/08 04:45:39;;;;;;;1.53;0.90;;;;;;;;;;10401913;28;20231;-73
2022/08/08 04:50:40;;;;;;;2.37;1.00;;;;;;;;;;10398710;28;20251;-73
2022/08/08 04:55:41;;;;;;;3.23;0.80;;;;;;;;;;10406244;28;20312;-72
2022/08/08 05:00:42;;;;;;;0.90;0.57;;;;;;;;;;10408089;28;20695;-72
2022/08/08 05:05:46;;;;;;;1.57;0.83;;;;;;;;;;10394713;28;20220;-73
2022/08/08 05:10:47;;;;;;;3.47;0.87;;;;;;;;;;10403480;28;20252;-72
2022/08/08 05:15:48;;;;;;;3.30;1.10;;;;;;;;;;10404759;28;20250;-72
2022/08/08 05:20:49;;;;;;;2.00;0.90;;;;;;;;;;10414004;28;20227;-74
2022/08/08 05:25:50;;;;;;;3.87;0.90;;;;;;;;;;10412161;28;20227;-75
2022/08/08 05:30:52;;;;;;;6.47;1.10;;;;;;;;;;10399047;28;20234;-72
2022/08/08 05:35:56;;;;;;;2.37;1.10;;;;;;;;;;10387489;28;20259;-71
2022/08/08 05:40:58;;;;;;;1.63;0.70;;;;;;;;;;10411315;28;20274;-73
2022/08/08 05:46:03;;;;;;;2.27;0.60;;;;;;;;;;10409461;28;20243;-72
2022/08/08 05:51:04;;;;;;;1.43;0.60;;;;;;;;;;10411729;28;20898;-73
2022/08/08 05:56:07;;;;;;;1.47;1.07;;;;;;;;;;10398208;28;20227;-76
2022/08/08 06:01:13;;;;;;;0.77;0.53;;;;;;;;;;10400068;28;20335;-75
2022/08/08 06:06:15;;;;;;;3.70;0.80;;;;;;;;;;10396171;28;20638;-75
2022/08/08 06:11:16;;;;;;;3.63;0.93;;;;;;;;;;10413140;28;20244;-74
2022/08/08 06:16:18;;;;;;;2.17;0.90;;;;;;;;;;10391667;28;20242;-75
2022/08/08 06:21:21;;;;;;;1.40;0.80;;;;;;;;;;10402874;28;20243;-74
2022/08/08 06:26:24;;;;;;;3.10;0.83;;;;;;;;;;10382409;28;20227;-76
2022/08/08 06:31:25;;;;;;;4.10;0.83;;;;;;;;;;10400397;28;20348;-74
2022/08/08 06:36:54;;;;;;;6.53;1.60;;;;;;;;;;10400823;28;20632;-74
2022/08/08 06:42:01;;;;;;;4.87;1.37;;;;;;;;;;10386825;28;20216;-75
2022/08/08 06:47:02;;;;;;;3.60;1.23;;;;;;;;;;10407819;28;20224;-72
2022/08/08 06:52:04;;;;;;;17.03;1.37;;;;;;;;;;10385622;28;20228;-74
2022/08/08 06:57:06;;;;;;;3.20;1.17;;;;;;;;;;10404194;28;20229;-74
2022/08/08 07:02:07;;;;;;;8.03;0.97;;;;;;;;;;10406127;28;20216;-74
2022/08/08 07:07:09;;;;;;;3.93;1.07;;;;;;;;;;10407180;28;20228;-74
2022/08/08 07:12:12;;;;;;;3.87;1.10;;;;;;;;;;10396977;28;20226;-75
2022/08/08 07:17:17;;;;;;;4.33;1.30;;;;;;;;;;10404619;28;20232;-74
2022/08/08 07:22:23;;;;;;;3.23;1.07;;;;;;;;;;10408740;28;20227;-74
2022/08/08 07:27:25;;;;;;;3.67;1.20;;;;;;;;;;10403730;28;20315;-75
2022/08/08 07:32:26;;;;;;;2.77;0.97;;;;;;;;;;10404409;28;20278;-75
2022/08/08 07:37:28;;;;;;;2.40;0.90;;;;;;;;;;10409596;28;20278;-75
2022/08/08 07:42:29;;;;;;;4.87;1.03;;;;;;;;;;10398151;28;20228;-75
2022/08/08 07:47:30;;;;;;;6.10;1.23;;;;;;;;;;10404972;28;20232;-75
2022/08/08 07:52:32;;;;;;;3.60;0.80;;;;;;;;;;10398904;28;20236;-75
2022/08/08 07:57:51;;;;;;;1.60;0.90;;;;;;;;;;10397440;28;20769;-74
2022/08/08 08:03:06;;;;;;;3.00;0.87;;;;;;;;;;10396334;28;20299;-74
2022/08/08 08:08:16;;;;;;;3.23;0.83;;;;;;;;;;10400111;28;20791;-75
2022/08/08 08:13:23;;;;;;;2.80;0.90;;;;;;;;;;10401413;28;20235;-74
2022/08/08 08:18:25;;;;;;;1.83;0.80;;;;;;;;;;10396877;28;20219;-74
2022/08/08 08:23:26;;;;;;;5.40;0.97;;;;;;;;;;10403915;28;20220;-74
2022/08/08 08:28:27;;;;;;;3.80;0.80;;;;;;;;;;10402918;28;20338;-73
2022/08/08 08:33:28;;;;;;;1.47;0.83;;;;;;;;;;10406648;28;20231;-73
2022/08/08 08:38:30;;;;;;;2.03;0.93;;;;;;;;;;10403960;28;20586;-74
2022/08/08 08:43:32;;;;;;;1.07;0.80;;;;;;;;;;10407286;28;20299;-75
2022/08/08 08:48:33;;;;;;;5.10;0.80;;;;;;;;;;10400177;28;20277;-74
2022/08/08 08:53:35;;;;;;;2.47;0.80;;;;;;;;;;10406598;28;20217;-74
2022/08/08 08:58:38;;;;;;;2.20;0.97;;;;;;;;;;10390657;28;20209;-73
2022/08/08 09:03:40;;;;;;;3.37;1.30;;;;;;;;;;10405962;28;20221;-75
2022/08/08 09:08:43;;;;;;;9.37;1.90;;;;;;;;;;10407601;28;20714;-74
2022/08/08 09:13:45;;;;;;;2.37;1.10;;;;;;;;;;10391917;28;20722;-74
2022/08/08 09:18:46;;;;;;;1.73;1.00;;;;;;;;;;10386567;28;20304;-74
2022/08/08 09:23:47;;;;;;;3.83;1.20;;;;;;;;;;10366208;28;20279;-74
2022/08/08 09:28:49;;;;;;;2.60;1.13;;;;;;;;;;10389066;28;20680;-74
2022/08/08 09:33:51;;;;;;;1.43;0.97;;;;;;;;;;10404447;28;20261;-73
2022/08/08 09:38:54;;;;;;;3.63;1.00;;;;;;;;;;10398491;28;20209;-74
2022/08/08 09:43:57;;;;;;;4.73;0.90;;;;;;;;;;10406057;28;20256;-74
2022/08/08 09:49:00;;;;;;;2.72;1.65;;;;;;;;;;10405795;28;20216;-75
2022/08/08 09:54:02;;;;;;;2.25;1.30;;;;;;;;;;10398668;28;20228;-74
2022/08/08 09:59:04;;;;;;;1.92;1.13;;;;;;;;;;10404540;28;20229;-74
2022/08/08 10:04:08;;;;;;;2.53;0.97;;;;;;;;;;10407643;28;20221;-74
2022/08/08 10:09:09;;;;;;;5.53;1.30;;;;;;;;;;10411282;28;20224;-73
2022/08/08 10:14:11;;;;;;;2.07;1.00;;;;;;;;;;10413941;28;20573;-73
2022/08/08 10:19:12;;;;;;;4.63;1.10;;;;;;;;;;10415432;28;20303;-75
2022/08/08 10:24:13;;;;;;;2.33;0.90;;;;;;;;;;10410712;28;20228;-74
2022/08/08 10:29:14;;;;;;;2.47;1.05;;;;;;;;;;10400364;28;20225;-74
2022/08/08 10:34:18;;;;;;;1.67;1.13;;;;;;;;;;10410562;28;20280;-74
2022/08/08 10:39:19;;;;;;;0.95;0.95;;;;;;;;;;10401628;28;20707;-74
2022/08/08 10:44:24;;;;;;;2.53;1.17;;;;;;;;;;10409637;28;20236;-75
2022/08/08 10:49:26;;;;;;;1.80;0.97;;;;;;;;;;10409077;28;20684;-74
2022/08/08 10:54:27;;;;;;;1.10;0.80;;;;;;;;;;10406374;28;20243;-75
2022/08/08 10:59:29;;;;;;;2.57;0.93;;;;;;;;;;10409085;28;20276;-75
2022/08/08 11:04:30;;;;;;;1.97;1.13;;;;;;;;;;10410458;28;20229;-75
2022/08/08 11:09:31;;;;;;;1.93;1.03;;;;;;;;;;10394620;28;20266;-75
2022/08/08 11:14:32;;;;;;;1.83;1.10;;;;;;;;;;10407292;28;20561;-74
2022/08/08 11:19:35;;;;;;;1.03;0.83;;;;;;;;;;10404643;28;20236;-75
2022/08/08 11:24:36;;;;;;;1.70;0.80;;;;;;;;;;10407329;28;20878;-74
2022/08/08 11:29:38;;;;;;;2.10;1.00;;;;;;;;;;10388343;28;20221;-74
2022/08/08 11:34:42;;;;;;;2.47;0.87;;;;;;;;;;10404414;28;20231;-73
2022/08/08 11:39:44;;;;;;;1.47;0.90;;;;;;;;;;10407551;28;20621;-72
2022/08/08 11:44:45;;;;;;;5.00;1.10;;;;;;;;;;10403847;28;20232;-73
2022/08/08 11:49:46;;;;;;;2.13;0.80;;;;;;;;;;10407478;28;20224;-75
2022/08/08 11:54:48;;;;;;;1.57;0.70;;;;;;;;;;10403216;28;20700;-73
2022/08/08 11:59:55;;;;;;;1.37;1.27;;;;;;;;;;10405071;28;20212;-73
2022/08/08 12:05:10;;;;;;;2.10;1.17;;;;;;;;;;10406413;28;20227;-73
2022/08/08 12:10:12;;;;;;;2.40;1.13;;;;;;;;;;10403879;28;20237;-74
2022/08/08 12:15:24;;;;;;;2.37;0.97;;;;;;;;;;10405452;28;20263;-74
2022/08/08 12:20:25;;;;;;;1.07;0.73;;;;;;;;;;10405126;28;20614;-73
2022/08/08 12:25:26;;;;;;;1.23;1.00;;;;;;;;;;10402177;28;20220;-74
2022/08/08 12:30:30;;;;;;;1.17;0.80;;;;;;;;;;10404066;28;20227;-73
2022/08/08 12:35:40;;;;;;;1.83;0.90;;;;;;;;;;10402309;28;20695;-73
2022/08/08 12:40:46;;;;;;;1.70;0.90;;;;;;;;;;10405379;28;20354;-74
2022/08/08 12:45:47;;;;;;;1.47;0.90;;;;;;;;;;10401115;28;20229;-75
2022/08/08 12:50:49;;;;;;;1.63;0.80;;;;;;;;;;10402579;28;20212;-74
2022/08/08 12:55:54;;;;;;;6.10;1.00;;;;;;;;;;10402373;28;20262;-74
2022/08/08 13:00:55;;;;;;;1.77;0.90;;;;;;;;;;10404493;28;20225;-75
2022/08/08 13:06:22;;;;;;;0.93;0.70;;;;;;;;;;10403627;28;20212;-74
2022/08/08 13:11:33;;;;;;;2.30;1.10;;;;;;;;;;10405935;28;20660;-74
2022/08/08 13:16:34;;;;;;;2.00;0.93;;;;;;;;;;10402725;28;20232;-75
2022/08/08 13:21:42;;;;;;;1.77;0.90;;;;;;;;;;10401137;28;20220;-75
2022/08/08 13:26:43;;;;;;;0.90;0.70;;;;;;;;;;10397335;28;20237;-74
2022/08/08 13:31:47;;;;;;;3.60;0.90;;;;;;;;;;10402285;28;20231;-74
2022/08/08 13:36:56;;;;;;;1.80;1.00;;;;;;;;;;10408739;28;20666;-75
2022/08/08 13:41:58;;;;;;;3.70;0.83;;;;;;;;;;10390776;28;20331;-75
2022/08/08 13:47:03;;;;;;;0.93;0.77;;;;;;;;;;10407135;28;20232;-75
2022/08/08 13:52:05;;;;;;;1.30;0.80;;;;;;;;;;10403324;28;20221;-75
2022/08/08 13:57:16;;;;;;;1.30;0.97;;;;;;;;;;10391060;28;20235;-74
2022/08/08 14:02:19;;;;;;;2.30;0.90;;;;;;;;;;10402048;28;20608;-75
2022/08/08 14:07:21;;;;;;;2.30;0.80;;;;;;;;;;10411480;28;20826;-75
2022/08/08 14:12:26;;;;;;;3.27;0.93;;;;;;;;;;10408232;28;20259;-74
2022/08/08 14:17:27;;;;;;;2.23;0.97;;;;;;;;;;10400299;28;20311;-74
2022/08/08 14:22:28;;;;;;;1.20;0.60;;;;;;;;;;10403236;28;20618;-73
2022/08/08 14:27:40;;;;;;;0.80;0.73;;;;;;;;;;10398462;28;20241;-72
2022/08/08 14:32:45;;;;;;;2.50;0.87;;;;;;;;;;10399108;28;20699;-74
2022/08/08 14:37:49;;;;;;;0.87;0.77;;;;;;;;;;10389467;28;20631;-76
2022/08/08 14:42:54;;;;;;;1.50;0.80;;;;;;;;;;10398427;28;20589;-74
2022/08/08 14:47:56;;;;;;;1.60;1.00;;;;;;;;;;10395021;28;20684;-73
2022/08/08 14:53:13;;;;;;;5.40;1.03;;;;;;;;;;10394345;28;20295;-74
2022/08/08 14:58:14;;;;;;;1.17;0.83;;;;;;;;;;10391529;28;20225;-76
2022/08/08 15:03:16;;;;;;;1.57;1.00;;;;;;;;;;10398492;28;20632;-74
2022/08/08 15:08:17;;;;;;;2.00;0.93;;;;;;;;;;10390220;28;20220;-74
2022/08/08 15:13:18;;;;;;;1.93;0.90;;;;;;;;;;10400730;28;20629;-74
2022/08/08 15:18:22;;;;;;;2.00;0.70;;;;;;;;;;10389646;28;20248;-74
2022/08/08 15:23:23;;;;;;;3.43;0.90;;;;;;;;;;10405361;28;20213;-72
2022/08/08 15:28:24;;;;;;;1.80;0.80;;;;;;;;;;10388179;28;20239;-74
2022/08/08 15:33:25;;;;;;;1.70;0.73;;;;;;;;;;10396333;28;20275;-73
2022/08/08 15:38:26;;;;;;;1.90;0.70;;;;;;;;;;10388369;28;20312;-75
2022/08/08 15:43:27;;;;;;;1.80;0.87;;;;;;;;;;10394841;28;20288;-74
2022/08/08 15:48:28;;;;;;;1.53;0.80;;;;;;;;;;10389280;28;20216;-73
2022/08/08 15:53:32;;;;;;;1.13;0.67;;;;;;;;;;10388693;28;20236;-73
2022/08/08 15:58:38;;;;;;;1.87;0.63;;;;;;;;;;10395678;28;20264;-75
2022/08/08 16:03:39;;;;;;;0.90;0.60;;;;;;;;;;10393741;28;20232;-74
2022/08/08 16:08:40;;;;;;;1.93;0.80;;;;;;;;;;10390542;28;20254;-74
2022/08/08 16:13:41;;;;;;;2.17;0.90;;;;;;;;;;10392546;28;20908;-73
2022/08/08 16:18:42;;;;;;;2.37;0.70;;;;;;;;;;10397106;28;20738;-74
2022/08/08 16:23:45;;;;;;;4.77;0.90;;;;;;;;;;10394841;28;20539;-74
2022/08/08 16:28:46;;;;;;;2.03;0.60;;;;;;;;;;10389208;28;20231;-74
2022/08/08 16:33:48;;;;;;;17.33;4.10;;;;;;;;;;10390366;28;20232;-74
2022/08/08 16:38:49;;;;;;;3.63;1.10;;;;;;;;;;10386721;28;20220;-75
2022/08/08 16:43:50;;;;;;;3.60;0.73;;;;;;;;;;10398419;28;20228;-74
2022/08/08 16:48:51;;;;;;;3.80;1.00;;;;;;;;;;10391567;28;20221;-74
2022/08/08 16:53:52;;;;;;;2.20;0.90;;;;;;;;;;10390438;28;20224;-75
2022/08/08 16:58:54;;;;;;;1.43;0.90;;;;;;;;;;10395486;28;20216;-73
2022/08/08 17:03:55;;;;;;;3.57;1.10;;;;;;;;;;10397847;28;20216;-74
2022/08/08 17:08:56;;;;;;;1.63;0.90;;;;;;;;;;10396790;28;20216;-74
2022/08/08 17:13:57;;;;;;;10.40;2.27;;;;;;;;;;10411585;28;20221;-75
2022/08/08 17:18:59;;;;;;;4.67;0.93;;;;;;;;;;10395595;28;20688;-75
2022/08/08 17:24:00;;;;;;;2.90;1.10;;;;;;;;;;10399193;28;20216;-75
2022/08/08 17:29:01;;;;;;;1.40;0.67;;;;;;;;;;10399461;28;20207;-74
2022/08/08 17:34:02;;;;;;;1.63;0.70;;;;;;;;;;10390457;28;20311;-74
2022/08/08 17:39:04;;;;;;;1.07;0.73;;;;;;;;;;10396991;28;20299;-74
2022/08/08 17:44:05;;;;;;;2.10;0.97;;;;;;;;;;10399168;28;20229;-74
2022/08/08 17:49:07;;;;;;;4.03;0.93;;;;;;;;;;10401745;28;20692;-74
2022/08/08 17:54:09;;;;;;;1.00;0.70;;;;;;;;;;10394205;28;20245;-74
2022/08/08 17:59:10;;;;;;;2.60;0.67;;;;;;;;;;10393000;28;20221;-74
2022/08/08 18:04:11;;;;;;;1.37;0.73;;;;;;;;;;10399397;28;20752;-74
2022/08/08 18:09:12;;;;;;;3.30;1.07;;;;;;;;;;10401524;28;20299;-74
2022/08/08 18:14:13;;;;;;;1.53;0.73;;;;;;;;;;10399375;28;20232;-74
2022/08/08 18:19:16;;;;;;;2.57;0.87;;;;;;;;;;10392096;28;20210;-74
2022/08/08 18:24:18;;;;;;;1.07;0.70;;;;;;;;;;10399656;28;20639;-74
2022/08/08 18:29:20;;;;;;;0.83;0.70;;;;;;;;;;10401526;28;20287;-75
2022/08/08 18:34:21;;;;;;;3.10;1.10;;;;;;;;;;10399211;28;20771;-73
2022/08/08 18:39:22;;;;;;;1.37;0.90;;;;;;;;;;10394955;28;20303;-74
2022/08/08 18:44:23;;;;;;;2.83;0.80;;;;;;;;;;10400066;28;20702;-74
2022/08/08 18:49:24;;;;;;;1.30;0.90;;;;;;;;;;10396000;28;20227;-70
2022/08/08 18:54:25;;;;;;;5.93;1.20;;;;;;;;;;10405499;28;20260;-70
2022/08/08 18:59:26;;;;;;;3.60;0.70;;;;;;;;;;10397698;28;20244;-70
2022/08/08 19:04:27;;;;;;;1.03;0.87;;;;;;;;;;10399308;28;20225;-70
2022/08/08 19:09:31;;;;;;;5.17;1.00;;;;;;;;;;10392989;28;20224;-70
2022/08/08 19:14:32;;;;;;;1.20;0.80;;;;;;;;;;10387761;28;20269;-71
2022/08/08 19:19:36;;;;;;;0.80;0.63;;;;;;;;;;10396181;28;20217;-71
2022/08/08 19:24:37;;;;;;;2.97;0.90;;;;;;;;;;10395642;28;20229;-71
2022/08/08 19:29:39;;;;;;;5.10;1.00;;;;;;;;;;10394775;28;20895;-70
2022/08/08 19:34:40;;;;;;;4.10;1.07;;;;;;;;;;10405449;28;20248;-69
2022/08/08 19:39:41;;;;;;;3.77;1.20;;;;;;;;;;10393503;28;20761;-70
2022/08/08 19:44:42;;;;;;;2.33;1.23;;;;;;;;;;10390238;28;20240;-74
2022/08/08 19:49:43;;;;;;;3.37;1.13;;;;;;;;;;10394471;28;20587;-72
2022/08/08 19:54:44;;;;;;;5.07;1.30;;;;;;;;;;10390540;28;20232;-71
2022/08/08 19:59:45;;;;;;;3.40;0.90;;;;;;;;;;10394957;28;20221;-71
2022/08/08 20:04:46;;;;;;;3.97;1.37;;;;;;;;;;10401591;28;20216;-71
2022/08/08 20:09:50;;;;;;;4.47;1.10;;;;;;;;;;10392048;28;20231;-73
2022/08/08 20:14:51;;;;;;;2.93;1.20;;;;;;;;;;10391994;28;20239;-72
2022/08/08 20:19:55;;;;;;;7.07;1.03;;;;;;;;;;10385140;28;20224;-73
2022/08/08 20:24:56;;;;;;;1.50;1.23;;;;;;;;;;10388497;28;20591;-73
2022/08/08 20:29:59;;;;;;;2.87;1.47;;;;;;;;;;10399497;28;20307;-73
2022/08/08 20:35:01;;;;;;;2.30;1.30;;;;;;;;;;10404781;28;20233;-73
2022/08/08 20:40:04;;;;;;;3.63;1.10;;;;;;;;;;10390015;28;20824;-71
2022/08/08 20:45:08;;;;;;;5.33;1.20;;;;;;;;;;10385680;28;20262;-75
2022/08/08 20:50:09;;;;;;;3.60;1.40;;;;;;;;;;10393540;28;20194;-72
2022/08/08 20:55:10;;;;;;;2.40;0.97;;;;;;;;;;10396449;28;20212;-73
2022/08/08 21:00:11;;;;;;;3.77;1.23;;;;;;;;;;10392423;28;20818;-71
2022/08/08 21:05:12;;;;;;;3.40;1.20;;;;;;;;;;10395107;28;20698;-73
2022/08/08 21:10:13;;;;;;;5.37;1.13;;;;;;;;;;10394807;28;20188;-74
2022/08/08 21:15:14;;;;;;;2.03;1.07;;;;;;;;;;10393644;28;20291;-71
2022/08/08 21:20:15;;;;;;;4.13;1.10;;;;;;;;;;10386414;28;20260;-71
2022/08/08 21:25:16;;;;;;;2.13;0.90;;;;;;;;;;10376343;28;20610;-71
2022/08/08 21:30:17;;;;;;;3.17;1.10;;;;;;;;;;10400864;28;20185;-71
2022/08/08 21:35:18;;;;;;;1.87;1.10;;;;;;;;;;10385612;28;20666;-71
2022/08/08 21:40:19;;;;;;;4.83;1.30;;;;;;;;;;10392747;28;20180;-71
2022/08/08 21:45:20;;;;;;;1.73;1.10;;;;;;;;;;10394041;28;20200;-71
2022/08/08 21:50:21;;;;;;;4.53;1.30;;;;;;;;;;10385657;28;20343;-71
2022/08/08 21:55:23;;;;;;;2.87;1.70;;;;;;;;;;10396104;28;20231;-72
2022/08/08 22:00:24;;;;;;;4.00;1.17;;;;;;;;;;10400964;28;20335;-71
2022/08/08 22:05:25;;;;;;;3.10;1.40;;;;;;;;;;10393029;28;20581;-72
2022/08/08 22:10:26;;;;;;;2.73;1.30;;;;;;;;;;10391144;28;20213;-70
2022/08/08 22:15:27;;;;;;;7.47;1.50;;;;;;;;;;10399761;28;20228;-70
2022/08/08 22:20:28;;;;;;;2.73;1.30;;;;;;;;;;10392387;28;20224;-71
2022/08/08 22:25:31;;;;;;;2.60;1.20;;;;;;;;;;10407037;28;20606;-72
2022/08/08 22:30:32;;;;;;;2.23;1.33;;;;;;;;;;10407093;28;20220;-72
2022/08/08 22:35:33;;;;;;;4.20;1.27;;;;;;;;;;10392283;28;20222;-72
2022/08/08 22:40:37;;;;;;;2.53;1.20;;;;;;;;;;10397061;28;20217;-71
2022/08/08 22:45:41;;;;;;;5.67;1.10;;;;;;;;;;10392431;28;20245;-73
2022/08/08 22:50:42;;;;;;;2.03;1.43;;;;;;;;;;10401005;28;20229;-71
2022/08/08 22:55:43;;;;;;;5.87;1.37;;;;;;;;;;10395357;28;20247;-72
2022/08/08 23:00:44;;;;;;;3.63;1.33;;;;;;;;;;10397950;28;20227;-72
2022/08/08 23:05:45;;;;;;;4.70;1.40;;;;;;;;;;10397557;28;20687;-71
2022/08/08 23:10:46;;;;;;;3.20;1.27;;;;;;;;;;10398621;28;20354;-71
2022/08/08 23:15:47;;;;;;;2.13;0.97;;;;;;;;;;10394236;28;20312;-73
2022/08/08 23:20:48;;;;;;;2.23;1.20;;;;;;;;;;10391926;28;20303;-72
2022/08/08 23:25:52;;;;;;;2.27;1.20;;;;;;;;;;10402186;28;20232;-72
2022/08/08 23:30:53;;;;;;;2.90;1.40;;;;;;;;;;10392941;28;20224;-70
2022/08/08 23:35:54;;;;;;;2.87;1.50;;;;;;;;;;10394001;28;20751;-72
2022/08/08 23:40:55;;;;;;;1.67;1.13;;;;;;;;;;10396973;28;20307;-72
2022/08/08 23:45:56;;;;;;;4.63;1.33;;;;;;;;;;10391820;28;20227;-72
2022/08/08 23:50:57;;;;;;;1.97;1.63;;;;;;;;;;10392880;28;20221;-70
2022/08/08 23:55:58;;;;;;;2.43;1.30;;;;;;;;;;10398619;28;20687;-71
